createdAt,value
2022-11-15T00:00:48.748Z,98912.84
2022-11-15T00:03:19.551Z,98914.78
2022-11-15T00:05:46.822Z,98905.84
2022-11-15T00:08:13.482Z,98910.47
2022-11-15T00:10:40.552Z,98906.19
2022-11-15T00:13:13.991Z,98898.34
2022-11-15T00:15:42.121Z,98899.44
2022-11-15T00:18:14.212Z,98907.41
2022-11-15T00:20:40.939Z,98906.44
2022-11-15T00:23:07.907Z,98909.63
2022-11-15T00:25:34.847Z,98907.41
2022-11-15T00:28:02.053Z,98913.91
2022-11-15T00:30:29.250Z,98912.84
2022-11-15T00:32:56.107Z,98913.63
2022-11-15T00:35:23.030Z,98910.91
2022-11-15T00:37:49.659Z,98911.72
2022-11-15T00:40:16.370Z,98908.50
2022-11-15T00:42:43.060Z,98906.91
2022-11-15T00:45:10.421Z,98910.44
2022-11-15T00:47:36.981Z,98907.72
2022-11-15T00:50:03.915Z,98915.03
2022-11-15T00:52:30.429Z,98911.22
2022-11-15T00:54:56.942Z,98908.84
2022-11-15T00:57:23.520Z,98905.31
2022-11-15T00:59:50.055Z,98913.91
2022-11-15T01:02:16.545Z,98909.00
2022-11-15T01:04:43.088Z,98919.34
2022-11-15T01:07:09.707Z,98904.19
2022-11-15T01:09:36.279Z,98916.63
2022-11-15T01:12:02.785Z,98910.13
2022-11-15T01:14:29.277Z,98919.03
2022-11-15T01:16:55.803Z,98921.25
2022-11-15T01:19:22.565Z,98914.72
2022-11-15T01:21:52.533Z,98920.97
2022-11-15T01:24:19.177Z,98910.72
2022-11-15T01:26:45.727Z,98913.44
2022-11-15T01:29:12.260Z,98901.50
2022-11-15T01:31:39.145Z,98909.63
2022-11-15T01:34:05.736Z,98912.31
2022-11-15T01:36:32.403Z,98903.41
2022-11-15T01:39:00.164Z,98906.44
2022-11-15T01:41:29.815Z,98903.25
2022-11-15T01:44:17.666Z,98896.09
2022-11-15T01:46:48.277Z,98894.31
2022-11-15T01:49:20.608Z,98907.66
2022-11-15T01:51:47.474Z,98908.00
2022-11-15T01:54:18.099Z,98905.41
2022-11-15T01:56:54.349Z,98903.03
2022-11-15T01:59:21.075Z,98904.63
2022-11-15T02:01:48.093Z,98903.81
2022-11-15T02:04:20.157Z,98898.41
2022-11-15T02:06:47.995Z,98894.88
2022-11-15T02:09:14.965Z,98897.78
2022-11-15T02:11:42.540Z,98890.75
2022-11-15T02:14:10.998Z,98896.47
2022-11-15T02:16:55.983Z,98883.25
2022-11-15T02:19:34.835Z,98886.13
2022-11-15T02:22:10.584Z,98886.47
2022-11-15T02:25:04.157Z,98884.34
2022-11-15T02:27:48.784Z,98883.88
2022-11-15T02:30:22.605Z,98890.09
2022-11-15T02:32:56.149Z,98895.03
2022-11-15T02:35:38.402Z,98896.78
2022-11-15T02:38:04.830Z,98885.59
2022-11-15T02:40:56.701Z,98883.97
2022-11-15T02:43:50.897Z,98871.91
2022-11-15T02:47:05.805Z,98881.25
2022-11-15T02:49:34.876Z,98876.31
2022-11-15T02:52:01.767Z,98862.09
2022-11-15T02:54:32.784Z,98863.03
2022-11-15T02:57:12.084Z,98857.78
2022-11-15T02:59:57.440Z,98847.69
2022-11-15T03:02:42.594Z,98840.81
2022-11-15T03:05:27.886Z,98846.66
2022-11-15T03:08:13.101Z,98843.81
2022-11-15T03:10:54.924Z,98852.97
2022-11-15T03:13:24.210Z,98849.41
2022-11-15T03:16:15.827Z,98846.75
2022-11-15T03:18:52.630Z,98856.63
2022-11-15T03:21:22.798Z,98861.28
2022-11-15T03:23:51.945Z,98858.00
2022-11-15T03:26:22.979Z,98862.84
2022-11-15T03:28:58.342Z,98863.88
2022-11-15T03:31:50.562Z,98849.38
2022-11-15T03:34:41.401Z,98851.59
2022-11-15T03:37:09.343Z,98856.00
2022-11-15T03:39:35.942Z,98855.91
2022-11-15T03:42:05.181Z,98850.91
2022-11-15T03:44:34.728Z,98852.13
2022-11-15T03:47:13.478Z,98851.94
2022-11-15T03:49:45.500Z,98855.16
2022-11-15T03:52:12.224Z,98849.16
2022-11-15T03:54:49.092Z,98845.34
2022-11-15T03:57:15.660Z,98851.75
2022-11-15T03:59:42.214Z,98849.16
2022-11-15T04:02:08.752Z,98842.16
2022-11-15T04:04:35.275Z,98842.16
2022-11-15T04:07:02.098Z,98846.53
2022-11-15T04:09:28.617Z,98843.34
2022-11-15T04:11:55.206Z,98850.34
2022-11-15T04:14:21.736Z,98851.44
2022-11-15T04:16:48.267Z,98850.94
2022-11-15T04:19:43.616Z,98846.97
2022-11-15T04:22:28.482Z,98845.75
2022-11-15T04:24:55.002Z,98847.16
2022-11-15T04:27:21.553Z,98851.53
2022-11-15T04:29:48.092Z,98848.16
2022-11-15T04:32:14.646Z,98854.53
2022-11-15T04:34:41.180Z,98849.84
2022-11-15T04:37:13.767Z,98865.63
2022-11-15T04:39:41.625Z,98853.16
2022-11-15T04:42:08.965Z,98855.72
2022-11-15T04:44:36.170Z,98858.94
2022-11-15T04:47:03.553Z,98857.31
2022-11-15T04:49:30.198Z,98852.44
2022-11-15T04:51:56.771Z,98852.34
2022-11-15T04:54:23.336Z,98855.03
2022-11-15T04:56:49.973Z,98857.75
2022-11-15T04:59:16.474Z,98855.53
2022-11-15T05:01:45.121Z,98861.94
2022-11-15T05:04:21.028Z,98863.53
2022-11-15T05:06:49.157Z,98853.72
2022-11-15T05:09:16.092Z,98860.22
2022-11-15T05:11:43.073Z,98858.84
2022-11-15T05:14:09.709Z,98851.53
2022-11-15T05:16:37.001Z,98839.13
2022-11-15T05:19:04.400Z,98839.75
2022-11-15T05:21:31.412Z,98850.31
2022-11-15T05:23:58.053Z,98845.34
2022-11-15T05:26:24.706Z,98848.34
2022-11-15T05:28:58.741Z,98839.88
2022-11-15T05:31:26.601Z,98836.06
2022-11-15T05:33:55.865Z,98844.94
2022-11-15T05:36:39.861Z,98846.09
2022-11-15T05:39:09.215Z,98840.09
2022-11-15T05:41:45.351Z,98846.25
2022-11-15T05:44:16.473Z,98844.25
2022-11-15T05:46:44.160Z,98846.00
2022-11-15T05:49:14.567Z,98841.22
2022-11-15T05:51:43.009Z,98838.81
2022-11-15T05:54:10.477Z,98839.03
2022-11-15T05:56:37.023Z,98840.84
2022-11-15T05:59:04.246Z,98842.59
2022-11-15T06:01:30.954Z,98834.66
2022-11-15T06:03:57.451Z,98847.00
2022-11-15T06:06:24.024Z,98847.13
2022-11-15T06:08:50.539Z,98844.91
2022-11-15T06:11:17.094Z,98834.28
2022-11-15T06:13:43.633Z,98847.47
2022-11-15T06:16:10.213Z,98830.38
2022-11-15T06:18:37.610Z,98834.69
2022-11-15T06:21:05.131Z,98826.47
2022-11-15T06:23:35.900Z,98819.63
2022-11-15T06:26:03.994Z,98823.28
2022-11-15T06:28:32.446Z,98819.34
2022-11-15T06:31:06.744Z,98815.38
2022-11-15T06:33:34.155Z,98822.25
2022-11-15T06:36:02.898Z,98821.13
2022-11-15T06:38:29.437Z,98826.63
2022-11-15T06:40:56.245Z,98828.69
2022-11-15T06:43:22.823Z,98848.31
2022-11-15T06:45:49.368Z,98848.22
2022-11-15T06:48:15.874Z,98848.88
2022-11-15T06:50:42.524Z,98851.84
2022-11-15T06:53:10.199Z,98844.34
2022-11-15T06:55:36.719Z,98840.56
2022-11-15T06:58:03.230Z,98841.25
2022-11-15T07:00:29.822Z,98839.44
2022-11-15T07:02:56.446Z,98837.84
2022-11-15T07:05:23.064Z,98845.94
2022-11-15T07:07:55.101Z,98839.78
2022-11-15T07:10:21.885Z,98841.75
2022-11-15T07:12:55.505Z,98847.53
2022-11-15T07:15:24.652Z,98845.34
2022-11-15T07:17:51.613Z,98842.34
2022-11-15T07:20:19.360Z,98840.97
2022-11-15T07:22:46.366Z,98849.25
2022-11-15T07:25:13.060Z,98845.16
2022-11-15T07:27:39.620Z,98844.56
2022-11-15T07:30:06.999Z,98844.75
2022-11-15T07:32:33.650Z,98850.34
2022-11-15T07:35:00.208Z,98845.16
2022-11-15T07:37:26.722Z,98844.53
2022-11-15T07:39:53.294Z,98847.94
2022-11-15T07:42:38.552Z,98839.53
2022-11-15T07:45:06.097Z,98839.75
2022-11-15T07:47:32.607Z,98836.94
2022-11-15T07:49:59.147Z,98840.94
2022-11-15T07:52:25.849Z,98839.03
2022-11-15T07:54:52.487Z,98838.22
2022-11-15T07:57:19.019Z,98839.03
2022-11-15T07:59:45.655Z,98837.63
2022-11-15T08:02:12.839Z,98842.13
2022-11-15T08:04:39.539Z,98844.50
2022-11-15T08:07:06.285Z,98843.72
2022-11-15T08:09:32.863Z,98831.81
2022-11-15T08:11:59.354Z,98828.03
2022-11-15T08:14:25.920Z,98823.72
2022-11-15T08:16:53.527Z,98829.81
2022-11-15T08:19:20.042Z,98831.09
2022-11-15T08:21:46.629Z,98825.09
2022-11-15T08:24:13.197Z,98827.69
2022-11-15T08:26:40.557Z,98832.47
2022-11-15T08:29:09.668Z,98829.66
2022-11-15T08:31:37.691Z,98832.25
2022-11-15T08:34:05.510Z,98837.84
2022-11-15T08:36:41.629Z,98821.81
2022-11-15T08:39:13.532Z,98816.59
2022-11-15T08:41:40.467Z,98802.19
2022-11-15T08:44:07.054Z,98815.06
2022-11-15T08:46:33.635Z,98810.16
2022-11-15T08:49:00.285Z,98800.19
2022-11-15T08:51:26.785Z,98794.16
2022-11-15T08:53:53.307Z,98792.09
2022-11-15T08:56:19.941Z,98788.50
2022-11-15T08:58:47.830Z,98788.53
2022-11-15T09:01:20.153Z,98790.00
2022-11-15T09:03:46.827Z,98779.59
2022-11-15T09:06:13.697Z,98779.97
2022-11-15T09:08:47.586Z,98777.13
2022-11-15T09:11:17.440Z,98769.97
2022-11-15T09:13:44.043Z,98762.88
2022-11-15T09:16:12.812Z,98763.66
2022-11-15T09:18:39.347Z,98771.44
2022-11-15T09:21:05.970Z,98780.03
2022-11-15T09:23:32.557Z,98773.69
2022-11-15T09:26:01.827Z,98768.66
2022-11-15T09:28:29.438Z,98769.28
2022-11-15T09:31:04.688Z,98765.19
2022-11-15T09:33:31.921Z,98756.66
2022-11-15T09:36:09.187Z,98752.38
2022-11-15T09:38:36.106Z,98750.63
2022-11-15T09:41:15.022Z,98754.94
2022-11-15T09:44:09.440Z,98753.50
2022-11-15T09:46:54.402Z,98739.03
2022-11-15T09:49:22.081Z,98727.91
2022-11-15T09:51:51.866Z,98729.97
2022-11-15T09:54:50.976Z,98728.69
2022-11-15T09:57:27.210Z,98723.94
2022-11-15T10:03:11.178Z,98724.09
2022-11-15T10:05:42.085Z,98718.19
2022-11-15T10:08:22.369Z,98717.56
2022-11-15T10:11:09.674Z,98718.78
2022-11-15T10:13:48.618Z,98718.75
2022-11-15T10:16:44.275Z,98709.31
2022-11-15T10:19:26.898Z,98707.56
2022-11-15T10:22:35.582Z,98699.25
2022-11-15T10:25:25.377Z,98705.81
2022-11-15T10:28:03.096Z,98704.06
2022-11-15T10:30:37.713Z,98707.72
2022-11-15T10:33:37.901Z,98699.63
2022-11-15T10:36:10.329Z,98694.06
2022-11-15T10:38:49.031Z,98687.38
2022-11-15T10:41:17.903Z,98679.88
2022-11-15T10:43:44.587Z,98679.22
2022-11-15T10:46:45.186Z,98668.84
2022-11-15T10:49:17.390Z,98662.31
2022-11-15T10:52:00.617Z,98661.66
2022-11-15T10:54:38.689Z,98654.16
2022-11-15T10:57:19.285Z,98639.63
2022-11-15T10:59:54.300Z,98624.31
2022-11-15T11:02:34.649Z,98624.56
2022-11-15T11:05:02.448Z,98622.13
2022-11-15T11:07:32.484Z,98607.75
2022-11-15T11:10:49.770Z,98607.69
2022-11-15T11:13:27.751Z,98607.44
2022-11-15T11:16:19.513Z,98597.66
2022-11-15T11:18:54.967Z,98592.19
2022-11-15T11:21:50.693Z,98584.97
2022-11-15T11:24:35.147Z,98574.22
2022-11-15T11:27:31.055Z,98578.22
2022-11-15T11:30:17.393Z,98562.84
2022-11-15T11:33:05.899Z,98551.06
2022-11-15T11:35:56.319Z,98549.94
2022-11-15T11:38:38.225Z,98541.94
2022-11-15T11:41:32.411Z,98535.03
2022-11-15T11:44:08.068Z,98528.28
2022-11-15T11:46:43.774Z,98531.25
2022-11-15T11:49:16.126Z,98528.44
2022-11-15T11:52:08.725Z,98522.00
2022-11-15T11:54:48.354Z,98509.81
2022-11-15T11:57:39.737Z,98504.59
2022-11-15T12:00:18.909Z,98498.50
2022-11-15T12:03:08.411Z,98489.47
2022-11-15T12:05:44.325Z,98493.75
2022-11-15T12:08:29.508Z,98483.25
2022-11-15T12:11:06.414Z,98479.72
2022-11-15T12:13:37.710Z,98480.91
2022-11-15T12:16:10.572Z,98468.75
2022-11-15T12:18:38.391Z,98465.88
2022-11-15T12:21:15.268Z,98460.69
2022-11-15T12:23:53.356Z,98466.31
2022-11-15T12:26:40.862Z,98453.38
2022-11-15T12:29:20.710Z,98442.72
2022-11-15T12:31:51.850Z,98440.44
2022-11-15T12:34:21.017Z,98434.88
2022-11-15T12:36:48.884Z,98441.13
2022-11-15T12:39:16.999Z,98434.88
2022-11-15T12:41:45.689Z,98430.94
2022-11-15T12:44:33.966Z,98414.25
2022-11-15T12:47:08.353Z,98405.41
2022-11-15T12:49:38.040Z,98401.75
2022-11-15T12:52:07.842Z,98398.63
2022-11-15T12:54:37.278Z,98385.56
2022-11-15T12:57:03.744Z,98389.50
2022-11-15T12:59:49.034Z,98379.31
2022-11-15T13:02:25.232Z,98377.31
2022-11-15T13:04:53.789Z,98374.84
2022-11-15T13:07:35.639Z,98369.63
2022-11-15T13:10:11.218Z,98367.38
2022-11-15T13:12:40.236Z,98356.50
2022-11-15T13:15:12.835Z,98355.69
2022-11-15T13:17:52.781Z,98355.34
2022-11-15T13:20:33.130Z,98345.78
2022-11-15T13:23:05.397Z,98349.22
2022-11-15T13:25:41.034Z,98336.22
2022-11-15T13:28:10.698Z,98332.72
2022-11-15T13:30:38.258Z,98327.28
2022-11-15T13:33:17.532Z,98320.25
2022-11-15T13:35:48.918Z,98314.81
2022-11-15T13:38:31.229Z,98311.66
2022-11-15T13:40:59.923Z,98307.00
2022-11-15T13:43:28.625Z,98305.78
2022-11-15T13:46:13.177Z,98296.72
2022-11-15T13:48:44.353Z,98288.09
2022-11-15T13:51:36.331Z,98289.94
2022-11-15T13:54:30.877Z,98278.19
2022-11-15T13:56:57.417Z,98272.75
2022-11-15T13:59:48.906Z,98271.63
2022-11-15T14:02:27.025Z,98266.88
2022-11-15T14:05:05.771Z,98262.47
2022-11-15T14:07:33.563Z,98261.28
2022-11-15T14:10:25.700Z,98260.63
2022-11-15T14:12:53.842Z,98252.75
2022-11-15T14:15:38.134Z,98256.88
2022-11-15T14:18:06.245Z,98246.66
2022-11-15T14:20:39.115Z,98244.22
2022-11-15T14:23:26.780Z,98237.00
2022-11-15T14:26:00.284Z,98230.00
2022-11-15T14:28:26.906Z,98240.00
2022-11-15T14:30:56.228Z,98232.88
2022-11-15T14:33:37.150Z,98233.56
2022-11-15T14:36:23.950Z,98238.22
2022-11-15T14:38:50.595Z,98238.22
2022-11-15T14:41:25.565Z,98235.06
2022-11-15T14:43:53.372Z,98226.44
2022-11-15T14:46:20.445Z,98228.72
2022-11-15T14:48:46.990Z,98241.88
2022-11-15T14:51:18.762Z,98227.41
2022-11-15T14:53:46.431Z,98225.03
2022-11-15T14:56:14.512Z,98230.84
2022-11-15T14:58:41.543Z,98227.56
2022-11-15T15:01:25.279Z,98227.00
2022-11-15T15:03:53.139Z,98227.25
2022-11-15T15:06:20.139Z,98222.50
2022-11-15T15:08:49.421Z,98223.66
2022-11-15T15:11:22.403Z,98227.84
2022-11-15T15:13:49.042Z,98220.38
2022-11-15T15:16:15.575Z,98217.56
2022-11-15T15:18:42.099Z,98219.81
2022-11-15T15:21:26.159Z,98216.22
2022-11-15T15:23:56.471Z,98205.81
2022-11-15T15:26:26.304Z,98201.41
2022-11-15T15:28:52.880Z,98207.53
2022-11-15T15:31:20.029Z,98200.06
2022-11-15T15:33:46.754Z,98199.19
2022-11-15T15:36:15.316Z,98193.63
2022-11-15T15:38:42.402Z,98196.97
2022-11-15T15:41:16.853Z,98191.44
2022-11-15T15:43:43.787Z,98202.28
2022-11-15T15:46:16.184Z,98193.25
2022-11-15T15:48:43.118Z,98188.97
2022-11-15T15:51:17.047Z,98186.94
2022-11-15T15:53:47.371Z,98175.06
2022-11-15T15:56:13.911Z,98172.56
2022-11-15T15:58:40.463Z,98175.91
2022-11-15T16:01:07.060Z,98178.38
2022-11-15T16:03:33.996Z,98172.06
2022-11-15T16:06:00.602Z,98168.47
2022-11-15T16:08:42.472Z,98169.59
2022-11-15T16:11:17.208Z,98166.44
2022-11-15T16:13:43.756Z,98164.72
2022-11-15T16:16:14.416Z,98164.28
2022-11-15T16:18:40.922Z,98164.28
2022-11-15T16:21:09.470Z,98165.09
2022-11-15T16:23:35.976Z,98163.97
2022-11-15T16:26:04.018Z,98170.97
2022-11-15T16:28:33.739Z,98163.16
2022-11-15T16:31:11.704Z,98159.22
2022-11-15T16:33:39.040Z,98161.47
2022-11-15T16:36:07.770Z,98160.53
2022-11-15T16:38:34.827Z,98160.44
2022-11-15T16:41:01.540Z,98151.50
2022-11-15T16:43:28.586Z,98160.44
2022-11-15T16:45:55.166Z,98158.06
2022-11-15T16:48:27.253Z,98162.34
2022-11-15T16:50:57.656Z,98147.44
2022-11-15T16:53:25.199Z,98149.94
2022-11-15T16:55:51.720Z,98143.38
2022-11-15T16:58:18.277Z,98149.59
2022-11-15T17:00:45.118Z,98151.06
2022-11-15T17:03:12.052Z,98144.94
2022-11-15T17:05:38.631Z,98140.31
2022-11-15T17:08:05.239Z,98138.84
2022-11-15T17:10:31.797Z,98131.16
2022-11-15T17:12:58.397Z,98133.88
2022-11-15T17:15:25.445Z,98127.22
2022-11-15T17:17:55.526Z,98129.47
2022-11-15T17:20:24.625Z,98125.50
2022-11-15T17:22:52.724Z,98126.66
2022-11-15T17:25:19.291Z,98118.50
2022-11-15T17:27:46.557Z,98115.78
2022-11-15T17:30:15.521Z,98112.28
2022-11-15T17:32:42.984Z,98116.47
2022-11-15T17:35:15.381Z,98107.09
2022-11-15T17:37:42.866Z,98100.44
2022-11-15T17:40:10.322Z,98098.06
2022-11-15T17:42:36.942Z,98107.66
2022-11-15T17:45:09.334Z,98111.06
2022-11-15T17:47:37.070Z,98105.19
2022-11-15T17:50:04.369Z,98107.91
2022-11-15T17:52:30.867Z,98109.41
2022-11-15T17:54:57.467Z,98100.91
2022-11-15T17:57:24.179Z,98102.47
2022-11-15T17:59:50.693Z,98099.78
2022-11-15T18:02:17.356Z,98090.41
2022-11-15T18:04:43.867Z,98096.50
2022-11-15T18:07:12.349Z,98085.88
2022-11-15T18:09:42.378Z,98091.22
2022-11-15T18:12:09.903Z,98088.03
2022-11-15T18:14:36.638Z,98091.88
2022-11-15T18:17:03.301Z,98089.97
2022-11-15T18:19:29.863Z,98087.25
2022-11-15T18:21:56.524Z,98086.44
2022-11-15T18:24:29.205Z,98090.28
2022-11-15T18:26:56.611Z,98083.97
2022-11-15T18:29:24.692Z,98078.56
2022-11-15T18:31:55.560Z,98078.91
2022-11-15T18:34:24.013Z,98077.34
2022-11-15T18:36:52.820Z,98078.09
2022-11-15T18:39:19.865Z,98077.34
2022-11-15T18:41:46.980Z,98070.66
2022-11-15T18:44:13.770Z,98074.81
2022-11-15T18:46:40.444Z,98069.78
2022-11-15T18:49:12.378Z,98065.03
2022-11-15T18:51:41.975Z,98060.38
2022-11-15T18:54:11.446Z,98063.91
2022-11-15T18:56:38.846Z,98053.84
2022-11-15T18:59:06.246Z,98062.75
2022-11-15T19:01:35.455Z,98036.78
2022-11-15T19:04:20.956Z,98041.78
2022-11-15T19:06:49.943Z,98032.59
2022-11-15T19:09:18.284Z,98038.81
2022-11-15T19:11:46.754Z,98031.47
2022-11-15T19:14:15.650Z,98028.44
2022-11-15T19:16:54.731Z,98031.91
2022-11-15T19:19:23.809Z,98026.59
2022-11-15T19:21:51.642Z,98018.94
2022-11-15T19:24:18.343Z,98032.16
2022-11-15T19:26:45.665Z,98017.78
2022-11-15T19:29:13.799Z,98014.38
2022-11-15T19:31:40.648Z,98022.19
2022-11-15T19:34:08.127Z,98022.31
2022-11-15T19:36:39.935Z,98015.31
2022-11-15T19:39:09.948Z,98014.84
2022-11-15T19:41:38.774Z,98023.78
2022-11-15T19:44:06.599Z,98015.31
2022-11-15T19:46:33.811Z,98016.88
2022-11-15T19:49:00.586Z,98006.03
2022-11-15T19:51:29.369Z,98016.09
2022-11-15T19:53:58.014Z,98006.03
2022-11-15T19:56:24.866Z,98004.00
2022-11-15T19:58:53.256Z,98015.19
2022-11-15T20:01:31.763Z,98001.19
2022-11-15T20:03:59.930Z,97999.25
2022-11-15T20:06:29.504Z,97995.84
2022-11-15T20:08:56.580Z,97992.69
2022-11-15T20:11:23.538Z,97988.78
2022-11-15T20:13:50.417Z,97991.47
2022-11-15T20:16:20.073Z,97980.97
2022-11-15T20:18:48.021Z,97987.88
2022-11-15T20:21:14.998Z,97981.22
2022-11-15T20:23:41.741Z,97985.50
2022-11-15T20:26:09.470Z,97993.19
2022-11-15T20:28:38.405Z,97976.94
2022-11-15T20:31:05.782Z,97973.78
2022-11-15T20:33:32.496Z,97966.78
2022-11-15T20:36:03.553Z,97963.63
2022-11-15T20:38:30.195Z,97972.44
2022-11-15T20:41:00.174Z,97975.16
2022-11-15T20:43:27.558Z,97966.66
2022-11-15T20:45:54.165Z,97964.75
2022-11-15T20:48:20.837Z,97962.81
2022-11-15T20:50:47.691Z,97959.22
2022-11-15T20:53:17.851Z,97955.75
2022-11-15T20:55:49.706Z,97954.13
2022-11-15T20:58:17.529Z,97950.97
2022-11-15T21:00:45.731Z,97957.31
2022-11-15T21:03:14.109Z,97956.19
2022-11-15T21:05:42.453Z,97949.63
2022-11-15T21:08:10.138Z,97949.63
2022-11-15T21:10:55.053Z,97947.69
2022-11-15T21:13:22.146Z,97940.38
2022-11-15T21:15:48.743Z,97938.78
2022-11-15T21:18:15.525Z,97936.06
2022-11-15T21:20:42.515Z,97941.50
2022-11-15T21:23:09.186Z,97931.78
2022-11-15T21:25:36.005Z,97934.94
2022-11-15T21:28:02.971Z,97928.03
2022-11-15T21:30:29.973Z,97921.84
2022-11-15T21:32:56.625Z,97925.69
2022-11-15T21:35:23.894Z,97930.41
2022-11-15T21:37:56.071Z,97930.41
2022-11-15T21:40:22.813Z,97918.00
2022-11-15T21:42:49.338Z,97918.00
2022-11-15T21:45:15.932Z,97919.56
2022-11-15T21:47:46.062Z,97918.06
2022-11-15T21:50:13.575Z,97921.25
2022-11-15T21:52:40.817Z,97920.47
2022-11-15T21:55:08.228Z,97918.56
2022-11-15T21:57:34.880Z,97911.19
2022-11-15T22:00:20.404Z,97905.78
2022-11-15T22:02:46.949Z,97906.22
2022-11-15T22:05:13.653Z,97903.50
2022-11-15T22:07:40.182Z,97914.34
2022-11-15T22:10:07.152Z,97903.50
2022-11-15T22:12:33.706Z,97889.50
2022-11-15T22:15:00.319Z,97893.34
2022-11-15T22:17:46.868Z,97898.78
2022-11-15T22:20:37.602Z,97889.50
2022-11-15T22:23:00.612Z,97890.31
2022-11-15T22:25:27.194Z,97894.25
2022-11-15T22:27:54.459Z,97894.25
2022-11-15T22:30:21.692Z,97896.94
2022-11-15T22:32:48.273Z,97889.69
2022-11-15T22:35:15.827Z,97887.44
2022-11-15T22:37:42.356Z,97887.91
2022-11-15T22:40:09.658Z,97885.25
2022-11-15T22:42:36.392Z,97899.19
2022-11-15T22:45:03.107Z,97900.75
2022-11-15T22:47:29.691Z,97899.94
2022-11-15T22:49:56.306Z,97900.75
2022-11-15T22:52:22.830Z,97892.19
2022-11-15T22:54:49.436Z,97891.03
2022-11-15T22:57:16.048Z,97894.91
2022-11-15T22:59:42.768Z,97891.03
2022-11-15T23:02:09.317Z,97891.50
2022-11-15T23:04:35.879Z,97892.69
2022-11-15T23:07:02.570Z,97895.53
2022-11-15T23:09:29.163Z,97892.38
2022-11-15T23:12:14.404Z,97892.03
2022-11-15T23:14:41.030Z,97898.66
2022-11-15T23:17:07.603Z,97895.97
2022-11-15T23:19:34.216Z,97891.66
2022-11-15T23:22:19.399Z,97892.47
2022-11-15T23:24:46.571Z,97882.75
2022-11-15T23:27:15.598Z,97888.97
2022-11-15T23:30:14.361Z,97890.09
2022-11-15T23:32:59.149Z,97893.25
2022-11-15T23:35:26.786Z,97899.47
2022-11-15T23:37:53.314Z,97900.25
2022-11-15T23:40:20.065Z,97896.31
2022-11-15T23:42:46.621Z,97890.09
2022-11-15T23:45:13.200Z,97897.47
2022-11-15T23:47:39.883Z,97892.38
2022-11-15T23:50:06.995Z,97893.94
2022-11-15T23:52:33.591Z,97888.41
2022-11-15T23:55:00.162Z,97902.34
2022-11-15T23:57:26.742Z,97896.91
2022-11-15T23:59:53.591Z,97899.63
